sensor_id;sensor_type;location;lat;lon;timestamp;pressure;altitude;pressure_sealevel;temperature;humidity
39449;BME280;25151;45.566;9.382;2024-02-26T00:02:06;98904.34;;;19.54;59.75
39449;BME280;25151;45.566;9.382;2024-02-26T00:04:32;98897.97;;;19.54;59.63
39449;BME280;25151;45.566;9.382;2024-02-26T00:06:59;98894.84;;;19.52;59.54
39449;BME280;25151;45.566;9.382;2024-02-26T00:09:25;98891.28;;;19.51;59.48
39449;BME280;25151;45.566;9.382;2024-02-26T00:11:53;98888.03;;;19.53;59.39
39449;BME280;25151;45.566;9.382;2024-02-26T00:14:21;98890.84;;;19.53;59.55
39449;BME280;25151;45.566;9.382;2024-02-26T00:16:47;98886.16;;;19.50;59.56
39449;BME280;25151;45.566;9.382;2024-02-26T00:19:14;98880.88;;;19.52;59.77
39449;BME280;25151;45.566;9.382;2024-02-26T00:21:41;98878.06;;;19.52;59.42
39449;BME280;25151;45.566;9.382;2024-02-26T00:24:09;98874.50;;;19.51;59.71
39449;BME280;25151;45.566;9.382;2024-02-26T00:26:36;98872.97;;;19.50;59.52
39449;BME280;25151;45.566;9.382;2024-02-26T00:29:04;98876.53;;;19.51;59.61
39449;BME280;25151;45.566;9.382;2024-02-26T00:31:30;98878.56;;;19.50;59.40
39449;BME280;25151;45.566;9.382;2024-02-26T00:33:58;98872.97;;;19.50;59.76
39449;BME280;25151;45.566;9.382;2024-02-26T00:36:24;98864.28;;;19.48;59.51
39449;BME280;25151;45.566;9.382;2024-02-26T00:38:51;98858.69;;;19.48;59.53
39449;BME280;25151;45.566;9.382;2024-02-26T00:41:18;98851.50;;;19.47;59.67
39449;BME280;25151;45.566;9.382;2024-02-26T00:43:45;98855.09;;;19.48;59.66
39449;BME280;25151;45.566;9.382;2024-02-26T00:46:11;98857.09;;;19.47;59.56
39449;BME280;25151;45.566;9.382;2024-02-26T00:48:38;98857.09;;;19.47;59.53
39449;BME280;25151;45.566;9.382;2024-02-26T00:51:05;98840.31;;;19.47;59.59
39449;BME280;25151;45.566;9.382;2024-02-26T00:53:32;98845.91;;;19.47;59.66
39449;BME280;25151;45.566;9.382;2024-02-26T00:55:58;98837.25;;;19.45;59.64
39449;BME280;25151;45.566;9.382;2024-02-26T00:58:25;98821.25;;;19.46;59.48
39449;BME280;25151;45.566;9.382;2024-02-26T01:00:52;98822.00;;;19.46;59.36
39449;BME280;25151;45.566;9.382;2024-02-26T01:03:18;98821.25;;;19.46;59.47
39449;BME280;25151;45.566;9.382;2024-02-26T01:05:45;98813.31;;;19.44;59.67
39449;BME280;25151;45.566;9.382;2024-02-26T01:08:11;98824.50;;;19.44;59.45
39449;BME280;25151;45.566;9.382;2024-02-26T01:10:38;98810.97;;;19.42;59.55
39449;BME280;25151;45.566;9.382;2024-02-26T01:13:04;98813.31;;;19.44;59.59
39449;BME280;25151;45.566;9.382;2024-02-26T01:15:31;98813.31;;;19.44;59.60
39449;BME280;25151;45.566;9.382;2024-02-26T01:17:58;98810.97;;;19.42;59.58
39449;BME280;25151;45.566;9.382;2024-02-26T01:20:24;98799.78;;;19.42;59.58
39449;BME280;25151;45.566;9.382;2024-02-26T01:22:51;98803.84;;;19.41;59.48
39449;BME280;25151;45.566;9.382;2024-02-26T01:25:18;98797.78;;;19.43;59.33
39449;BME280;25151;45.566;9.382;2024-02-26T01:27:44;98793.44;;;19.42;59.50
39449;BME280;25151;45.566;9.382;2024-02-26T01:30:13;98782.72;;;19.40;59.52
39449;BME280;25151;45.566;9.382;2024-02-26T01:32:42;98786.28;;;19.41;59.25
39449;BME280;25151;45.566;9.382;2024-02-26T01:35:08;98772.31;;;19.41;59.51
39449;BME280;25151;45.566;9.382;2024-02-26T01:37:37;98777.59;;;19.39;59.43
39449;BME280;25151;45.566;9.382;2024-02-26T01:40:09;98779.13;;;19.40;59.47
39449;BME280;25151;45.566;9.382;2024-02-26T01:42:38;98770.44;;;19.38;59.68
39449;BME280;25151;45.566;9.382;2024-02-26T01:45:05;98765.16;;;19.40;59.55
39449;BME280;25151;45.566;9.382;2024-02-26T01:47:32;98764.84;;;19.38;59.52
39449;BME280;25151;45.566;9.382;2024-02-26T01:49:59;98762.06;;;19.38;59.65
39449;BME280;25151;45.566;9.382;2024-02-26T01:52:26;98756.47;;;19.38;59.29
39449;BME280;25151;45.566;9.382;2024-02-26T01:54:52;98764.84;;;19.38;59.32
39449;BME280;25151;45.566;9.382;2024-02-26T01:57:18;98761.28;;;19.37;59.46
39449;BME280;25151;45.566;9.382;2024-02-26T01:59:48;98752.13;;;19.37;59.67
39449;BME280;25151;45.566;9.382;2024-02-26T02:02:15;98755.69;;;19.37;59.48
39449;BME280;25151;45.566;9.382;2024-02-26T02:04:42;98747.75;;;19.36;59.58
39449;BME280;25151;45.566;9.382;2024-02-26T02:07:08;98742.16;;;19.36;59.54
39449;BME280;25151;45.566;9.382;2024-02-26T02:09:35;98742.16;;;19.36;59.30
39449;BME280;25151;45.566;9.382;2024-02-26T02:12:01;98747.75;;;19.36;59.30
39449;BME280;25151;45.566;9.382;2024-02-26T02:14:28;98735.03;;;19.35;59.30
39449;BME280;25151;45.566;9.382;2024-02-26T02:16:55;98735.81;;;19.35;59.29
39449;BME280;25151;45.566;9.382;2024-02-26T02:19:21;98730.22;;;19.35;59.38
39449;BME280;25151;45.566;9.382;2024-02-26T02:21:48;98727.91;;;19.34;59.37
39449;BME280;25151;45.566;9.382;2024-02-26T02:24:14;98734.25;;;19.34;59.49
39449;BME280;25151;45.566;9.382;2024-02-26T02:26:41;98722.78;;;19.32;59.25
39449;BME280;25151;45.566;9.382;2024-02-26T02:29:07;98715.16;;;19.33;59.47
39449;BME280;25151;45.566;9.382;2024-02-26T02:31:35;98720.75;;;19.33;59.49
39449;BME280;25151;45.566;9.382;2024-02-26T02:34:01;98715.16;;;19.33;59.27
39449;BME280;25151;45.566;9.382;2024-02-26T02:36:28;98709.25;;;19.31;59.19
39449;BME280;25151;45.566;9.382;2024-02-26T02:38:55;98705.69;;;19.30;59.40
39449;BME280;25151;45.566;9.382;2024-02-26T02:41:21;98706.47;;;19.31;59.41
39449;BME280;25151;45.566;9.382;2024-02-26T02:43:47;98703.66;;;19.31;59.33
39449;BME280;25151;45.566;9.382;2024-02-26T02:46:14;98716.41;;;19.32;59.25
39449;BME280;25151;45.566;9.382;2024-02-26T02:48:41;98702.13;;;19.30;59.47
39449;BME280;25151;45.566;9.382;2024-02-26T02:51:09;98721.22;;;19.31;59.44
39449;BME280;25151;45.566;9.382;2024-02-26T02:53:36;98706.16;;;19.29;59.34
39449;BME280;25151;45.566;9.382;2024-02-26T02:56:02;98706.16;;;19.29;59.37
39449;BME280;25151;45.566;9.382;2024-02-26T02:58:30;98713.31;;;19.30;59.32
39449;BME280;25151;45.566;9.382;2024-02-26T03:00:56;98716.88;;;19.30;59.54
39449;BME280;25151;45.566;9.382;2024-02-26T03:03:23;98715.78;;;19.28;59.34
39449;BME280;25151;45.566;9.382;2024-02-26T03:05:51;98720.16;;;19.29;59.49
39449;BME280;25151;45.566;9.382;2024-02-26T03:08:18;98721.38;;;19.28;59.35
39449;BME280;25151;45.566;9.382;2024-02-26T03:10:45;98711.00;;;19.28;59.51
39449;BME280;25151;45.566;9.382;2024-02-26T03:13:11;98711.75;;;19.29;59.33
39449;BME280;25151;45.566;9.382;2024-02-26T03:15:38;98694.66;;;19.27;59.45
39449;BME280;25151;45.566;9.382;2024-02-26T03:18:04;98690.31;;;19.26;59.46
39449;BME280;25151;45.566;9.382;2024-02-26T03:20:34;98693.91;;;19.26;59.39
39449;BME280;25151;45.566;9.382;2024-02-26T03:23:01;98699.97;;;19.25;59.38
39449;BME280;25151;45.566;9.382;2024-02-26T03:25:28;98697.16;;;19.25;59.22
39449;BME280;25151;45.566;9.382;2024-02-26T03:27:54;98698.72;;;19.26;59.31
39449;BME280;25151;45.566;9.382;2024-02-26T03:30:20;98694.38;;;19.25;59.40
39449;BME280;25151;45.566;9.382;2024-02-26T03:32:47;98681.16;;;19.25;59.31
39449;BME280;25151;45.566;9.382;2024-02-26T03:35:14;98692.81;;;19.24;59.38
39449;BME280;25151;45.566;9.382;2024-02-26T03:37:40;98699.97;;;19.25;59.18
39449;BME280;25151;45.566;9.382;2024-02-26T03:40:07;98693.28;;;19.22;59.48
39449;BME280;25151;45.566;9.382;2024-02-26T03:42:33;98696.84;;;19.23;59.23
39449;BME280;25151;45.566;9.382;2024-02-26T03:45:00;98698.38;;;19.24;59.26
39449;BME280;25151;45.566;9.382;2024-02-26T03:47:26;98703.22;;;19.23;59.24
39449;BME280;25151;45.566;9.382;2024-02-26T03:49:53;98698.09;;;19.22;59.44
39449;BME280;25151;45.566;9.382;2024-02-26T03:52:19;98688.94;;;19.21;59.34
39449;BME280;25151;45.566;9.382;2024-02-26T03:54:46;98697.63;;;19.23;59.35
39449;BME280;25151;45.566;9.382;2024-02-26T03:57:12;98683.34;;;19.21;59.20
39449;BME280;25151;45.566;9.382;2024-02-26T03:59:39;98683.34;;;19.21;59.29
39449;BME280;25151;45.566;9.382;2024-02-26T04:02:06;98692.19;;;19.20;59.22
39449;BME280;25151;45.566;9.382;2024-02-26T04:04:34;98689.72;;;19.22;59.25
39449;BME280;25151;45.566;9.382;2024-02-26T04:07:01;98679.47;;;19.19;59.22
39449;BME280;25151;45.566;9.382;2024-02-26T04:09:27;98675.41;;;19.20;59.50
39449;BME280;25151;45.566;9.382;2024-02-26T04:11:54;98682.56;;;19.21;59.46
39449;BME280;25151;45.566;9.382;2024-02-26T04:14:26;98674.66;;;19.19;59.29
39449;BME280;25151;45.566;9.382;2024-02-26T04:16:52;98668.00;;;19.16;59.22
39449;BME280;25151;45.566;9.382;2024-02-26T04:19:20;98663.47;;;19.19;59.36
39449;BME280;25151;45.566;9.382;2024-02-26T04:21:46;98667.50;;;19.18;59.22
39449;BME280;25151;45.566;9.382;2024-02-26T04:24:16;98662.69;;;19.19;59.37
39449;BME280;25151;45.566;9.382;2024-02-26T04:26:43;98660.38;;;19.17;59.38
39449;BME280;25151;45.566;9.382;2024-02-26T04:29:09;98665.19;;;19.16;59.44
39449;BME280;25151;45.566;9.382;2024-02-26T04:31:37;98677.16;;;19.17;59.38
39449;BME280;25151;45.566;9.382;2024-02-26T04:34:04;98685.06;;;19.19;59.24
39449;BME280;25151;45.566;9.382;2024-02-26T04:36:31;98693.91;;;19.17;59.32
39449;BME280;25151;45.566;9.382;2024-02-26T04:38:58;98690.78;;;19.15;59.19
39449;BME280;25151;45.566;9.382;2024-02-26T04:41:25;98685.97;;;19.15;59.17
39449;BME280;25151;45.566;9.382;2024-02-26T04:43:51;98684.75;;;19.16;59.38
39449;BME280;25151;45.566;9.382;2024-02-26T04:46:17;98691.56;;;19.15;59.54
39449;BME280;25151;45.566;9.382;2024-02-26T04:48:44;98690.03;;;19.14;59.23
39449;BME280;25151;45.566;9.382;2024-02-26T04:51:12;98685.69;;;19.13;59.46
39449;BME280;25151;45.566;9.382;2024-02-26T04:53:38;98688.47;;;19.13;59.26
39449;BME280;25151;45.566;9.382;2024-02-26T04:56:05;98685.69;;;19.13;59.36
39449;BME280;25151;45.566;9.382;2024-02-26T04:58:31;98688.00;;;19.15;59.29
39449;BME280;25151;45.566;9.382;2024-02-26T05:00:58;98688.47;;;19.13;59.52
39449;BME280;25151;45.566;9.382;2024-02-26T05:03:24;98682.88;;;19.13;59.52
39449;BME280;25151;45.566;9.382;2024-02-26T05:05:51;98681.34;;;19.12;59.24
39449;BME280;25151;45.566;9.382;2024-02-26T05:08:17;98693.28;;;19.13;59.30
39449;BME280;25151;45.566;9.382;2024-02-26T05:10:45;98689.72;;;19.12;59.34
39449;BME280;25151;45.566;9.382;2024-02-26T05:13:12;98691.72;;;19.12;59.31
39449;BME280;25151;45.566;9.382;2024-02-26T05:15:41;98690.94;;;19.11;59.26
39449;BME280;25151;45.566;9.382;2024-02-26T05:18:07;98688.63;;;19.10;59.41
39449;BME280;25151;45.566;9.382;2024-02-26T05:20:34;98691.72;;;19.12;59.31
39449;BME280;25151;45.566;9.382;2024-02-26T05:23:01;98698.09;;;19.12;59.22
39449;BME280;25151;45.566;9.382;2024-02-26T05:25:29;98703.38;;;19.10;59.17
39449;BME280;25151;45.566;9.382;2024-02-26T05:27:56;98697.31;;;19.12;59.16
39449;BME280;25151;45.566;9.382;2024-02-26T05:30:22;98699.81;;;19.10;59.34
39449;BME280;25151;45.566;9.382;2024-02-26T05:32:49;98701.81;;;19.09;59.31
39449;BME280;25151;45.566;9.382;2024-02-26T05:35:15;98701.81;;;19.09;59.39
39449;BME280;25151;45.566;9.382;2024-02-26T05:37:42;98709.44;;;19.09;59.26
39449;BME280;25151;45.566;9.382;2024-02-26T05:40:09;98710.66;;;19.08;59.42
39449;BME280;25151;45.566;9.382;2024-02-26T05:42:35;98705.84;;;19.08;59.41
39449;BME280;25151;45.566;9.382;2024-02-26T05:45:02;98712.22;;;19.09;59.27
39449;BME280;25151;45.566;9.382;2024-02-26T05:47:35;98708.19;;;19.10;59.16
39449;BME280;25151;45.566;9.382;2024-02-26T05:50:01;98704.63;;;19.09;59.31
39449;BME280;25151;45.566;9.382;2024-02-26T05:52:28;98700.72;;;19.07;59.21
39449;BME280;25151;45.566;9.382;2024-02-26T05:54:57;98705.84;;;19.08;59.29
39449;BME280;25151;45.566;9.382;2024-02-26T05:57:24;98707.09;;;19.07;59.42
39449;BME280;25151;45.566;9.382;2024-02-26T05:59:50;98719.81;;;19.08;59.47
39449;BME280;25151;45.566;9.382;2024-02-26T06:02:16;98711.44;;;19.08;59.36
39449;BME280;25151;45.566;9.382;2024-02-26T06:04:43;98714.22;;;19.08;59.30
39449;BME280;25151;45.566;9.382;2024-02-26T06:07:09;98712.69;;;19.07;59.12
39449;BME280;25151;45.566;9.382;2024-02-26T06:09:36;98712.38;;;19.05;59.30
39449;BME280;25151;45.566;9.382;2024-02-26T06:12:02;98708.00;;;19.04;59.13
39449;BME280;25151;45.566;9.382;2024-02-26T06:14:29;98715.19;;;19.05;59.39
39449;BME280;25151;45.566;9.382;2024-02-26T06:16:55;98720.00;;;19.05;59.36
39449;BME280;25151;45.566;9.382;2024-02-26T06:19:21;98713.59;;;19.04;59.31
39449;BME280;25151;45.566;9.382;2024-02-26T06:21:48;98715.31;;;19.02;59.19
39449;BME280;25151;45.566;9.382;2024-02-26T06:24:14;98720.75;;;19.05;59.18
39449;BME280;25151;45.566;9.382;2024-02-26T06:26:41;98718.41;;;19.04;59.35
39449;BME280;25151;45.566;9.382;2024-02-26T06:29:07;98719.19;;;19.04;59.12
39449;BME280;25151;45.566;9.382;2024-02-26T06:31:34;98725.59;;;19.05;59.27
39449;BME280;25151;45.566;9.382;2024-02-26T06:34:00;98721.69;;;19.02;59.16
39449;BME280;25151;45.566;9.382;2024-02-26T06:36:27;98718.91;;;19.02;59.33
39449;BME280;25151;45.566;9.382;2024-02-26T06:38:54;98711.75;;;19.01;59.24
39449;BME280;25151;45.566;9.382;2024-02-26T06:41:20;98715.78;;;19.00;59.19
39449;BME280;25151;45.566;9.382;2024-02-26T06:43:46;98714.09;;;19.03;59.24
39449;BME280;25151;45.566;9.382;2024-02-26T06:46:12;98719.19;;;19.04;59.16
39449;BME280;25151;45.566;9.382;2024-02-26T06:48:38;98714.84;;;19.03;59.13
39449;BME280;25151;45.566;9.382;2024-02-26T06:51:04;98725.59;;;19.05;59.18
39449;BME280;25151;45.566;9.382;2024-02-26T06:53:30;98724.78;;;19.04;59.31
39449;BME280;25151;45.566;9.382;2024-02-26T06:55:56;98728.81;;;19.03;59.35
39449;BME280;25151;45.566;9.382;2024-02-26T06:58:22;98724.78;;;19.04;59.37
39449;BME280;25151;45.566;9.382;2024-02-26T07:00:48;98734.41;;;19.03;59.27
39449;BME280;25151;45.566;9.382;2024-02-26T07:03:14;98735.94;;;19.04;59.47
39449;BME280;25151;45.566;9.382;2024-02-26T07:05:40;98733.16;;;19.04;59.34
39449;BME280;25151;45.566;9.382;2024-02-26T07:08:06;98739.84;;;19.07;59.35
39449;BME280;25151;45.566;9.382;2024-02-26T07:10:32;98732.56;;;19.09;59.36
39449;BME280;25151;45.566;9.382;2024-02-26T07:12:59;98742.00;;;19.12;59.51
39449;BME280;25151;45.566;9.382;2024-02-26T07:15:25;98740.66;;;19.16;59.42
39449;BME280;25151;45.566;9.382;2024-02-26T07:17:52;98750.09;;;19.19;59.38
39449;BME280;25151;45.566;9.382;2024-02-26T07:20:17;98745.28;;;19.20;59.32
39449;BME280;25151;45.566;9.382;2024-02-26T07:22:44;98755.84;;;19.25;59.31
39449;BME280;25151;45.566;9.382;2024-02-26T07:25:10;98747.78;;;19.27;59.22
39449;BME280;25151;45.566;9.382;2024-02-26T07:27:39;98756.31;;;19.32;59.27
39449;BME280;25151;45.566;9.382;2024-02-26T07:30:06;98749.94;;;19.41;59.17
39449;BME280;25151;45.566;9.382;2024-02-26T07:32:34;98750.88;;;19.47;59.13
39449;BME280;25151;45.566;9.382;2024-02-26T07:35:00;98752.44;;;19.48;59.30
39449;BME280;25151;45.566;9.382;2024-02-26T07:37:26;98747.63;;;19.49;59.20
39449;BME280;25151;45.566;9.382;2024-02-26T07:39:52;98758.16;;;19.54;58.95
39449;BME280;25151;45.566;9.382;2024-02-26T07:42:20;98751.16;;;19.58;59.15
39449;BME280;25151;45.566;9.382;2024-02-26T07:44:46;98758.03;;;19.67;58.78
39449;BME280;25151;45.566;9.382;2024-02-26T07:47:12;98745.91;;;19.70;58.90
39449;BME280;25151;45.566;9.382;2024-02-26T07:49:39;98754.59;;;19.72;58.91
39449;BME280;25151;45.566;9.382;2024-02-26T07:52:06;98761.88;;;19.78;58.62
39449;BME280;25151;45.566;9.382;2024-02-26T07:54:32;98765.28;;;19.82;58.80
39449;BME280;25151;45.566;9.382;2024-02-26T07:56:58;98750.50;;;19.91;58.41
39449;BME280;25151;45.566;9.382;2024-02-26T07:59:24;98757.97;;;19.94;58.66
39449;BME280;25151;45.566;9.382;2024-02-26T08:01:51;98750.34;;;19.95;58.54
39449;BME280;25151;45.566;9.382;2024-02-26T08:04:17;98741.34;;;20.00;58.09
39449;BME280;25151;45.566;9.382;2024-02-26T08:06:43;98737.88;;;20.05;58.27
39449;BME280;25151;45.566;9.382;2024-02-26T08:09:09;98732.91;;;20.09;57.95
39449;BME280;25151;45.566;9.382;2024-02-26T08:11:35;98726.81;;;20.10;58.35
39449;BME280;25151;45.566;9.382;2024-02-26T08:14:02;98735.81;;;20.14;58.03
39449;BME280;25151;45.566;9.382;2024-02-26T08:16:28;98727.13;;;20.12;57.99
39449;BME280;25151;45.566;9.382;2024-02-26T08:18:55;98718.41;;;20.10;57.98
39449;BME280;25151;45.566;9.382;2024-02-26T08:21:21;98720.00;;;20.11;58.19
39449;BME280;25151;45.566;9.382;2024-02-26T08:23:48;98729.94;;;20.12;58.11
39449;BME280;25151;45.566;9.382;2024-02-26T08:26:14;98725.59;;;20.11;58.15
39449;BME280;25151;45.566;9.382;2024-02-26T08:28:40;98728.69;;;20.13;57.78
39449;BME280;25151;45.566;9.382;2024-02-26T08:31:07;98723.84;;;20.14;57.78
39449;BME280;25151;45.566;9.382;2024-02-26T08:33:33;98726.38;;;20.12;57.79
39449;BME280;25151;45.566;9.382;2024-02-26T08:36:04;98718.75;;;20.12;58.05
39449;BME280;25151;45.566;9.382;2024-02-26T08:38:30;98725.88;;;20.13;57.75
39449;BME280;25151;45.566;9.382;2024-02-26T08:40:57;98721.81;;;20.14;57.79
39449;BME280;25151;45.566;9.382;2024-02-26T08:43:23;98731.47;;;20.13;57.90
39449;BME280;25151;45.566;9.382;2024-02-26T08:45:49;98723.56;;;20.12;57.59
39449;BME280;25151;45.566;9.382;2024-02-26T08:48:14;98729.94;;;20.12;57.69
39449;BME280;25151;45.566;9.382;2024-02-26T08:50:41;98731.47;;;20.13;57.72
39449;BME280;25151;45.566;9.382;2024-02-26T08:53:07;98737.06;;;20.13;57.51
39449;BME280;25151;45.566;9.382;2024-02-26T08:55:33;98741.91;;;20.13;57.37
39449;BME280;25151;45.566;9.382;2024-02-26T08:57:59;98733.50;;;20.13;57.57
39449;BME280;25151;45.566;9.382;2024-02-26T09:00:25;98722.31;;;20.13;57.65
39449;BME280;25151;45.566;9.382;2024-02-26T09:02:51;98724.03;;;20.10;57.53
39449;BME280;25151;45.566;9.382;2024-02-26T09:05:17;98736.78;;;20.11;57.66
39449;BME280;25151;45.566;9.382;2024-02-26T09:07:43;98739.28;;;20.09;57.72
39449;BME280;25151;45.566;9.382;2024-02-26T09:10:09;98736.00;;;20.11;57.89
39449;BME280;25151;45.566;9.382;2024-02-26T09:12:39;98738.50;;;20.09;57.78
39449;BME280;25151;45.566;9.382;2024-02-26T09:15:06;98740.53;;;20.08;57.44
39449;BME280;25151;45.566;9.382;2024-02-26T09:17:32;98744.09;;;20.09;57.45
39449;BME280;25151;45.566;9.382;2024-02-26T09:19:58;98742.56;;;20.08;57.43
39449;BME280;25151;45.566;9.382;2024-02-26T09:22:24;98729.78;;;20.07;57.71
39449;BME280;25151;45.566;9.382;2024-02-26T09:24:50;98734.94;;;20.08;57.71
39449;BME280;25151;45.566;9.382;2024-02-26T09:27:18;98740.22;;;20.06;57.74
39449;BME280;25151;45.566;9.382;2024-02-26T09:29:44;98747.81;;;20.06;57.51
39449;BME280;25151;45.566;9.382;2024-02-26T09:32:10;98748.31;;;20.04;57.85
39449;BME280;25151;45.566;9.382;2024-02-26T09:34:36;98751.88;;;20.05;57.84
39449;BME280;25151;45.566;9.382;2024-02-26T09:37:05;98749.84;;;20.05;57.91
39449;BME280;25151;45.566;9.382;2024-02-26T09:39:31;98728.41;;;20.02;57.88
39449;BME280;25151;45.566;9.382;2024-02-26T09:41:57;98728.41;;;20.02;57.46
39449;BME280;25151;45.566;9.382;2024-02-26T09:44:25;98734.00;;;20.02;57.70
39449;BME280;25151;45.566;9.382;2024-02-26T09:46:53;98724.06;;;20.01;57.60
39449;BME280;25151;45.566;9.382;2024-02-26T09:49:20;98722.53;;;20.00;57.42
39449;BME280;25151;45.566;9.382;2024-02-26T09:51:49;98726.84;;;20.01;57.97
39449;BME280;25151;45.566;9.382;2024-02-26T09:54:16;98720.50;;;20.01;57.86
39449;BME280;25151;45.566;9.382;2024-02-26T09:56:43;98723.75;;;19.99;57.64
39449;BME280;25151;45.566;9.382;2024-02-26T09:59:17;98730.59;;;19.98;57.68
39449;BME280;25151;45.566;9.382;2024-02-26T10:01:44;98727.03;;;19.98;57.92
39449;BME280;25151;45.566;9.382;2024-02-26T10:04:12;98734.66;;;19.97;57.52
39449;BME280;25151;45.566;9.382;2024-02-26T10:06:39;98734.31;;;19.95;57.32
39449;BME280;25151;45.566;9.382;2024-02-26T10:09:06;98734.31;;;19.95;57.67
39449;BME280;25151;45.566;9.382;2024-02-26T10:11:35;98735.13;;;19.96;57.48
39449;BME280;25151;45.566;9.382;2024-02-26T10:14:01;98737.13;;;19.95;57.86
39449;BME280;25151;45.566;9.382;2024-02-26T10:16:28;98741.19;;;19.94;57.62
39449;BME280;25151;45.566;9.382;2024-02-26T10:18:54;98745.22;;;19.93;57.72
39449;BME280;25151;45.566;9.382;2024-02-26T10:21:21;98735.28;;;19.92;57.86
39449;BME280;25151;45.566;9.382;2024-02-26T10:23:47;98749.56;;;19.94;57.70
39449;BME280;25151;45.566;9.382;2024-02-26T10:26:14;98743.38;;;19.90;57.61
39449;BME280;25151;45.566;9.382;2024-02-26T10:28:42;98747.25;;;19.93;57.61
39449;BME280;25151;45.566;9.382;2024-02-26T10:31:09;98747.25;;;19.93;57.67
39449;BME280;25151;45.566;9.382;2024-02-26T10:33:36;98740.09;;;19.92;57.69
39449;BME280;25151;45.566;9.382;2024-02-26T10:36:06;98733.44;;;19.89;57.48
39449;BME280;25151;45.566;9.382;2024-02-26T10:38:35;98738.09;;;19.92;57.68
39449;BME280;25151;45.566;9.382;2024-02-26T10:41:07;98730.16;;;19.90;57.92
39449;BME280;25151;45.566;9.382;2024-02-26T10:43:38;98722.69;;;19.87;57.98
39449;BME280;25151;45.566;9.382;2024-02-26T10:46:04;98729.09;;;19.88;57.76
39449;BME280;25151;45.566;9.382;2024-02-26T10:48:30;98728.13;;;19.91;58.03
39449;BME280;25151;45.566;9.382;2024-02-26T10:50:57;98734.50;;;19.92;58.10
39449;BME280;25151;45.566;9.382;2024-02-26T10:53:25;98727.84;;;19.89;58.09
39449;BME280;25151;45.566;9.382;2024-02-26T10:55:57;98741.50;;;19.87;58.11
39449;BME280;25151;45.566;9.382;2024-02-26T10:58:23;98740.28;;;19.88;58.19
39449;BME280;25151;45.566;9.382;2024-02-26T11:00:51;98733.72;;;19.91;57.99
39449;BME280;25151;45.566;9.382;2024-02-26T11:03:18;98732.50;;;19.92;58.07
39449;BME280;25151;45.566;9.382;2024-02-26T11:05:49;98720.22;;;19.89;58.33
39449;BME280;25151;45.566;9.382;2024-02-26T11:08:17;98715.38;;;19.90;58.23
39449;BME280;25151;45.566;9.382;2024-02-26T11:10:44;98698.59;;;19.90;58.17
39449;BME280;25151;45.566;9.382;2024-02-26T11:13:14;98698.59;;;19.90;58.21
39449;BME280;25151;45.566;9.382;2024-02-26T11:15:43;98696.28;;;19.88;58.16
39449;BME280;25151;45.566;9.382;2024-02-26T11:18:09;98697.50;;;19.87;58.57
39449;BME280;25151;45.566;9.382;2024-02-26T11:20:39;98695.53;;;19.88;58.66
39449;BME280;25151;45.566;9.382;2024-02-26T11:23:05;98690.38;;;19.86;58.49
39449;BME280;25151;45.566;9.382;2024-02-26T11:25:32;98687.56;;;19.86;58.70
39449;BME280;25151;45.566;9.382;2024-02-26T11:28:01;98698.94;;;19.83;58.74
39449;BME280;25151;45.566;9.382;2024-02-26T11:30:31;98694.09;;;19.83;58.66
39449;BME280;25151;45.566;9.382;2024-02-26T11:32:58;98701.28;;;19.84;58.87
39449;BME280;25151;45.566;9.382;2024-02-26T11:35:25;98723.19;;;19.86;58.89
39449;BME280;25151;45.566;9.382;2024-02-26T11:37:55;98725.34;;;19.82;58.99
39449;BME280;25151;45.566;9.382;2024-02-26T11:40:25;98738.09;;;19.83;59.25
39449;BME280;25151;45.566;9.382;2024-02-26T11:42:51;98728.94;;;19.82;59.10
39449;BME280;25151;45.566;9.382;2024-02-26T11:48:12;98726.13;;;19.82;59.14
39449;BME280;25151;45.566;9.382;2024-02-26T11:50:41;98719.75;;;19.82;59.42
39449;BME280;25151;45.566;9.382;2024-02-26T11:53:22;98708.28;;;19.80;59.48
39449;BME280;25151;45.566;9.382;2024-02-26T11:55:48;98716.69;;;19.80;59.53
39449;BME280;25151;45.566;9.382;2024-02-26T11:58:34;98711.84;;;19.80;59.28
39449;BME280;25151;45.566;9.382;2024-02-26T12:01:03;98701.91;;;19.79;59.45
39449;BME280;25151;45.566;9.382;2024-02-26T12:03:30;98695.53;;;19.79;59.44
39449;BME280;25151;45.566;9.382;2024-02-26T12:05:56;98702.38;;;19.78;59.69
39449;BME280;25151;45.566;9.382;2024-02-26T12:08:23;98687.91;;;19.79;59.54
39449;BME280;25151;45.566;9.382;2024-02-26T12:10:51;98685.59;;;19.78;59.91
39449;BME280;25151;45.566;9.382;2024-02-26T12:13:29;98679.22;;;19.77;59.69
39449;BME280;25151;45.566;9.382;2024-02-26T12:15:57;98667.25;;;19.77;59.90
39449;BME280;25151;45.566;9.382;2024-02-26T12:18:23;98666.00;;;19.78;59.75
39449;BME280;25151;45.566;9.382;2024-02-26T12:21:00;98658.88;;;19.77;59.91
39449;BME280;25151;45.566;9.382;2024-02-26T12:23:27;98658.56;;;19.75;59.77
39449;BME280;25151;45.566;9.382;2024-02-26T12:25:58;98661.34;;;19.75;59.99
39449;BME280;25151;45.566;9.382;2024-02-26T12:28:30;98660.09;;;19.76;59.80
39449;BME280;25151;45.566;9.382;2024-02-26T12:30:56;98650.47;;;19.77;59.69
39449;BME280;25151;45.566;9.382;2024-02-26T12:33:26;98649.72;;;19.76;59.79
39449;BME280;25151;45.566;9.382;2024-02-26T12:35:53;98646.59;;;19.74;59.79
39449;BME280;25151;45.566;9.382;2024-02-26T12:38:19;98648.13;;;19.75;59.67
39449;BME280;25151;45.566;9.382;2024-02-26T12:40:45;98635.41;;;19.74;60.01
39449;BME280;25151;45.566;9.382;2024-02-26T12:43:14;98649.09;;;19.72;60.01
39449;BME280;25151;45.566;9.382;2024-02-26T12:45:41;98657.00;;;19.74;59.82
39449;BME280;25151;45.566;9.382;2024-02-26T12:48:08;98659.50;;;19.72;60.10
39449;BME280;25151;45.566;9.382;2024-02-26T12:50:34;98658.72;;;19.71;59.82
39449;BME280;25151;45.566;9.382;2024-02-26T12:53:01;98654.69;;;19.72;60.16
39449;BME280;25151;45.566;9.382;2024-02-26T12:55:27;98662.28;;;19.72;60.01
39449;BME280;25151;45.566;9.382;2024-02-26T12:57:53;98661.06;;;19.73;59.93
39449;BME280;25151;45.566;9.382;2024-02-26T13:00:26;98666.34;;;19.71;60.16
39449;BME280;25151;45.566;9.382;2024-02-26T13:02:55;98674.72;;;19.71;60.09